createdAt,value
2022-12-03T00:00:33.421Z,69.32
2022-12-03T00:03:03.392Z,69.14
2022-12-03T00:05:30.372Z,68.81
2022-12-03T00:07:56.809Z,68.83
2022-12-03T00:10:23.549Z,69.64
2022-12-03T00:12:49.980Z,69.28
2022-12-03T00:15:16.439Z,69.53
2022-12-03T00:17:42.819Z,69.38
2022-12-03T00:20:11.562Z,69.72
2022-12-03T00:22:37.991Z,69.44
2022-12-03T00:25:04.850Z,69.79
2022-12-03T00:27:31.290Z,69.95
2022-12-03T00:29:57.680Z,69.51
2022-12-03T00:32:24.205Z,70.09
2022-12-03T00:34:51.008Z,70.05
2022-12-03T00:37:17.713Z,70.16
2022-12-03T00:39:44.076Z,70.46
2022-12-03T00:42:10.509Z,70.51
2022-12-03T00:44:36.949Z,70.19
2022-12-03T00:47:03.423Z,70.38
2022-12-03T00:49:30.127Z,70.87
2022-12-03T00:51:56.560Z,70.19
2022-12-03T00:54:26.974Z,70.32
2022-12-03T00:56:57.927Z,69.83
2022-12-03T00:59:24.438Z,70.09
2022-12-03T01:01:50.847Z,70.64
2022-12-03T01:04:18.620Z,70.11
2022-12-03T01:06:45.093Z,70.60
2022-12-03T01:09:11.487Z,70.06
2022-12-03T01:11:37.844Z,70.63
2022-12-03T01:14:12.848Z,70.91
2022-12-03T01:16:39.821Z,70.59
2022-12-03T01:19:08.087Z,70.78
2022-12-03T01:21:34.546Z,70.41
2022-12-03T01:24:01.007Z,70.09
2022-12-03T01:26:27.614Z,70.53
2022-12-03T01:28:54.049Z,70.64
2022-12-03T01:31:39.220Z,70.65
2022-12-03T01:34:05.798Z,70.13
2022-12-03T01:36:34.168Z,70.33
2022-12-03T01:39:02.147Z,70.73
2022-12-03T01:41:29.518Z,71.36
2022-12-03T01:43:57.473Z,70.54
2022-12-03T01:46:28.249Z,70.71
2022-12-03T01:48:56.064Z,70.82
2022-12-03T01:51:22.745Z,70.98
2022-12-03T01:53:50.901Z,71.12
2022-12-03T01:56:18.318Z,70.74
2022-12-03T01:58:46.256Z,70.77
2022-12-03T02:01:15.870Z,70.91
2022-12-03T02:03:42.818Z,70.63
2022-12-03T02:06:18.055Z,70.79
2022-12-03T02:08:45.170Z,71.00
2022-12-03T02:11:44.348Z,70.24
2022-12-03T02:14:16.577Z,70.97
2022-12-03T02:16:43.980Z,70.59
2022-12-03T02:19:21.543Z,71.00
2022-12-03T02:21:59.831Z,71.02
2022-12-03T02:24:37.332Z,70.31
2022-12-03T02:27:03.867Z,70.90
2022-12-03T02:29:30.649Z,71.29
2022-12-03T02:31:57.267Z,70.84
2022-12-03T02:34:38.424Z,71.03
2022-12-03T02:37:07.457Z,71.02
2022-12-03T02:39:37.336Z,70.81
2022-12-03T02:42:23.838Z,70.76
2022-12-03T02:44:51.137Z,70.77
2022-12-03T02:47:18.184Z,70.80
2022-12-03T02:49:44.892Z,70.96
2022-12-03T02:52:11.617Z,71.03
2022-12-03T02:54:38.180Z,71.10
2022-12-03T02:57:05.064Z,71.49
2022-12-03T02:59:31.702Z,71.63
2022-12-03T03:01:58.284Z,71.69
2022-12-03T03:04:25.167Z,71.58
2022-12-03T03:06:52.172Z,71.69
2022-12-03T03:09:20.229Z,71.99
2022-12-03T03:11:46.663Z,72.08
2022-12-03T03:14:13.367Z,72.43
2022-12-03T03:16:39.969Z,71.91
2022-12-03T03:19:06.404Z,71.48
2022-12-03T03:21:32.841Z,71.60
2022-12-03T03:23:59.176Z,71.64
2022-12-03T03:26:26.215Z,72.30
2022-12-03T03:28:52.648Z,72.15
2022-12-03T03:31:23.013Z,71.74
2022-12-03T03:33:50.688Z,71.82
2022-12-03T03:36:18.095Z,72.21
2022-12-03T03:38:44.594Z,72.22
2022-12-03T03:41:12.537Z,71.67
2022-12-03T03:43:41.226Z,72.21
2022-12-03T03:46:08.557Z,71.91
2022-12-03T03:48:35.538Z,72.37
2022-12-03T03:51:08.580Z,72.00
2022-12-03T03:53:47.881Z,72.40
2022-12-03T03:56:17.451Z,72.10
2022-12-03T03:58:43.872Z,72.49
2022-12-03T04:01:12.744Z,72.16
2022-12-03T04:03:39.543Z,72.10
2022-12-03T04:06:06.463Z,72.43
2022-12-03T04:08:32.807Z,72.90
2022-12-03T04:11:17.811Z,72.35
2022-12-03T04:13:44.203Z,72.37
2022-12-03T04:16:10.764Z,72.23
2022-12-03T04:18:43.316Z,72.92
2022-12-03T04:21:36.624Z,72.52
2022-12-03T04:24:04.175Z,72.67
2022-12-03T04:26:49.261Z,73.07
2022-12-03T04:29:17.621Z,72.67
2022-12-03T04:32:02.558Z,73.37
2022-12-03T04:34:47.807Z,73.07
2022-12-03T04:37:14.579Z,72.99
2022-12-03T04:39:40.945Z,72.55
2022-12-03T04:42:07.714Z,73.00
2022-12-03T04:44:37.536Z,72.43
2022-12-03T04:47:21.535Z,72.98
2022-12-03T04:49:50.641Z,73.80
2022-12-03T04:52:19.116Z,72.95
2022-12-03T04:54:46.142Z,72.90
2022-12-03T04:57:12.641Z,73.31
2022-12-03T04:59:39.544Z,73.01
2022-12-03T05:02:06.924Z,72.62
2022-12-03T05:04:34.086Z,72.89
2022-12-03T05:07:00.507Z,73.50
2022-12-03T05:09:26.982Z,73.09
2022-12-03T05:11:53.356Z,72.97
2022-12-03T05:14:19.818Z,72.41
2022-12-03T05:16:46.180Z,72.73
2022-12-03T05:19:12.668Z,72.54
2022-12-03T05:21:39.029Z,72.89
2022-12-03T05:24:05.830Z,72.46
2022-12-03T05:26:32.181Z,72.64
2022-12-03T05:28:58.640Z,72.94
2022-12-03T05:31:25.055Z,72.47
2022-12-03T05:33:51.540Z,73.17
2022-12-03T05:36:18.023Z,72.84
2022-12-03T05:38:44.372Z,72.65
2022-12-03T05:41:29.599Z,72.04
2022-12-03T05:43:56.056Z,72.38
2022-12-03T05:46:22.970Z,71.56
2022-12-03T05:48:49.359Z,72.29
2022-12-03T05:51:15.823Z,71.66
2022-12-03T05:53:42.240Z,71.71
2022-12-03T05:56:08.620Z,71.39
2022-12-03T05:58:35.142Z,71.87
2022-12-03T06:01:01.543Z,71.55
2022-12-03T06:03:28.175Z,72.03
2022-12-03T06:05:54.648Z,71.62
2022-12-03T06:08:20.999Z,71.84
2022-12-03T06:10:47.435Z,71.98
2022-12-03T06:13:13.915Z,72.33
2022-12-03T06:15:43.757Z,71.57
2022-12-03T06:18:10.640Z,71.73
2022-12-03T06:20:37.041Z,71.57
2022-12-03T06:23:03.465Z,71.68
2022-12-03T06:25:29.912Z,71.20
2022-12-03T06:27:56.265Z,71.31
2022-12-03T06:30:22.677Z,71.62
2022-12-03T06:32:49.086Z,71.45
2022-12-03T06:35:15.520Z,70.98
2022-12-03T06:37:41.904Z,70.43
2022-12-03T06:40:08.704Z,71.12
2022-12-03T06:42:35.091Z,70.51
2022-12-03T06:45:01.628Z,71.42
2022-12-03T06:47:29.556Z,71.66
2022-12-03T06:49:55.932Z,71.81
2022-12-03T06:52:22.421Z,71.33
2022-12-03T06:54:48.779Z,71.75
2022-12-03T06:57:15.327Z,71.24
2022-12-03T06:59:41.775Z,70.88
2022-12-03T07:02:08.226Z,71.46
2022-12-03T07:04:34.667Z,71.39
2022-12-03T07:07:01.071Z,71.05
2022-12-03T07:09:27.745Z,71.40
2022-12-03T07:11:54.117Z,71.36
2022-12-03T07:14:20.713Z,71.43
2022-12-03T07:16:47.508Z,71.56
2022-12-03T07:19:14.210Z,71.61
2022-12-03T07:21:41.042Z,71.29
2022-12-03T07:24:08.127Z,71.78
2022-12-03T07:26:34.501Z,71.83
2022-12-03T07:29:01.072Z,71.66
2022-12-03T07:31:27.505Z,71.55
2022-12-03T07:33:54.674Z,70.54
2022-12-03T07:36:21.051Z,71.41
2022-12-03T07:38:47.444Z,71.30
2022-12-03T07:41:15.422Z,71.71
2022-12-03T07:43:41.801Z,71.93
2022-12-03T07:46:08.481Z,70.78
2022-12-03T07:48:35.049Z,71.93
2022-12-03T07:51:01.433Z,71.89
2022-12-03T07:53:27.897Z,72.45
2022-12-03T07:55:54.317Z,71.61
2022-12-03T07:58:20.750Z,72.27
2022-12-03T08:00:47.334Z,72.52
2022-12-03T08:03:13.754Z,72.85
2022-12-03T08:05:40.099Z,72.08
2022-12-03T08:08:06.676Z,71.98
2022-12-03T08:10:33.144Z,72.47
2022-12-03T08:12:59.602Z,72.39
2022-12-03T08:15:33.685Z,72.89
2022-12-03T08:18:12.740Z,71.64
2022-12-03T08:20:40.985Z,72.44
2022-12-03T08:23:14.656Z,72.06
2022-12-03T08:25:42.244Z,72.30
2022-12-03T08:28:26.689Z,73.11
2022-12-03T08:31:01.321Z,72.41
2022-12-03T08:33:33.457Z,72.88
2022-12-03T08:36:01.876Z,72.52
2022-12-03T08:38:29.601Z,72.54
2022-12-03T08:40:56.027Z,73.24
2022-12-03T08:43:24.665Z,73.14
2022-12-03T08:45:53.418Z,73.02
2022-12-03T08:48:34.202Z,72.50
2022-12-03T08:51:13.498Z,71.06
2022-12-03T08:53:47.600Z,69.92
2022-12-03T08:56:25.776Z,70.88
2022-12-03T08:58:55.616Z,69.97
2022-12-03T09:01:33.680Z,70.88
2022-12-03T09:04:27.693Z,70.73
2022-12-03T09:06:54.891Z,70.40
2022-12-03T09:09:22.828Z,70.10
2022-12-03T09:11:50.114Z,70.09
2022-12-03T09:14:18.839Z,69.90
2022-12-03T09:16:45.649Z,69.38
2022-12-03T09:19:12.151Z,70.18
2022-12-03T09:21:38.555Z,69.67
2022-12-03T09:24:05.189Z,70.36
2022-12-03T09:26:31.531Z,68.58
2022-12-03T09:28:57.938Z,68.90
2022-12-03T09:31:24.483Z,67.75
2022-12-03T09:33:50.904Z,67.95
2022-12-03T09:36:17.312Z,67.52
2022-12-03T09:38:47.760Z,67.02
2022-12-03T09:41:14.911Z,67.35
2022-12-03T09:44:03.140Z,68.10
2022-12-03T09:46:30.006Z,68.37
2022-12-03T09:48:56.619Z,67.39
2022-12-03T09:51:29.488Z,67.73
2022-12-03T09:53:55.971Z,67.23
2022-12-03T09:56:23.434Z,66.72
2022-12-03T09:58:50.378Z,66.60
2022-12-03T10:01:17.680Z,65.55
2022-12-03T10:03:47.735Z,66.16
2022-12-03T10:06:18.213Z,66.56
2022-12-03T10:08:48.331Z,67.03
2022-12-03T10:11:15.784Z,66.58
2022-12-03T10:13:43.370Z,66.74
2022-12-03T10:16:13.135Z,67.02
2022-12-03T10:18:51.979Z,67.16
2022-12-03T10:21:32.161Z,67.32
2022-12-03T10:24:17.003Z,66.78
2022-12-03T10:26:44.750Z,66.57
2022-12-03T10:29:18.926Z,67.22
2022-12-03T10:31:48.888Z,67.25
2022-12-03T10:34:24.205Z,67.19
2022-12-03T10:37:10.046Z,67.19
2022-12-03T10:39:56.941Z,66.18
2022-12-03T10:42:24.872Z,66.26
2022-12-03T10:45:06.470Z,66.73
2022-12-03T10:47:32.990Z,66.97
2022-12-03T10:50:05.564Z,67.35
2022-12-03T10:52:32.576Z,66.91
2022-12-03T10:54:58.972Z,67.71
2022-12-03T10:57:25.492Z,67.85
2022-12-03T10:59:52.051Z,67.46
2022-12-03T11:02:24.152Z,67.40
2022-12-03T11:04:51.540Z,67.59
2022-12-03T11:07:20.258Z,67.38
2022-12-03T11:09:49.659Z,67.60
2022-12-03T11:12:28.045Z,68.03
2022-12-03T11:14:55.028Z,68.36
2022-12-03T11:17:42.295Z,68.55
2022-12-03T11:20:33.338Z,68.31
2022-12-03T11:22:59.895Z,67.37
2022-12-03T11:25:29.063Z,67.95
2022-12-03T11:28:13.845Z,68.08
2022-12-03T11:30:53.355Z,68.27
2022-12-03T11:33:24.647Z,67.55
2022-12-03T11:36:03.407Z,68.40
2022-12-03T11:38:52.970Z,67.95
2022-12-03T11:41:31.707Z,68.76
2022-12-03T11:43:59.611Z,68.31
2022-12-03T11:46:46.429Z,68.83
2022-12-03T11:49:34.115Z,67.95
2022-12-03T11:52:02.474Z,69.21
2022-12-03T11:54:34.459Z,68.22
2022-12-03T11:57:01.367Z,68.71
2022-12-03T11:59:28.018Z,68.44
2022-12-03T12:01:54.397Z,68.77
2022-12-03T12:04:35.653Z,69.18
2022-12-03T12:07:02.620Z,68.77
2022-12-03T12:09:50.535Z,69.20
2022-12-03T12:12:40.672Z,68.86
2022-12-03T12:15:32.851Z,67.86
2022-12-03T12:18:36.735Z,68.42
2022-12-03T12:21:43.679Z,68.58
2022-12-03T12:24:43.053Z,68.45
2022-12-03T12:27:13.971Z,68.44
2022-12-03T12:29:42.106Z,69.26
2022-12-03T12:32:08.526Z,68.55
2022-12-03T12:34:40.253Z,68.28
2022-12-03T12:37:17.357Z,68.68
2022-12-03T12:39:43.801Z,68.77
2022-12-03T12:42:29.788Z,69.29
2022-12-03T12:45:16.269Z,69.75
2022-12-03T12:47:48.284Z,69.60
2022-12-03T12:50:16.516Z,69.53
2022-12-03T12:52:54.660Z,68.86
2022-12-03T12:55:22.885Z,69.40
2022-12-03T12:57:50.502Z,69.01
2022-12-03T13:00:21.224Z,69.37
2022-12-03T13:03:01.115Z,68.80
2022-12-03T13:05:38.229Z,68.65
2022-12-03T13:08:21.326Z,69.10
2022-12-03T13:10:48.368Z,68.44
2022-12-03T13:13:23.898Z,68.80
2022-12-03T13:16:01.376Z,68.43
2022-12-03T13:18:33.199Z,68.65
2022-12-03T13:20:59.764Z,68.87
2022-12-03T13:23:31.056Z,68.24
2022-12-03T13:26:22.331Z,68.63
2022-12-03T13:28:51.892Z,68.94
2022-12-03T13:31:25.550Z,69.04
2022-12-03T13:33:53.295Z,68.77
2022-12-03T13:36:20.903Z,68.02
2022-12-03T13:38:47.508Z,68.44
2022-12-03T13:41:36.948Z,68.11
2022-12-03T13:44:13.417Z,68.32
2022-12-03T13:46:39.850Z,69.34
2022-12-03T13:49:16.253Z,69.63
2022-12-03T13:51:43.510Z,69.46
2022-12-03T13:54:16.228Z,69.49
2022-12-03T13:56:42.706Z,68.97
2022-12-03T13:59:09.277Z,68.41
2022-12-03T14:01:36.240Z,68.98
2022-12-03T14:04:03.709Z,68.39
2022-12-03T14:06:30.467Z,67.84
2022-12-03T14:08:56.864Z,68.60
2022-12-03T14:11:41.911Z,67.97
2022-12-03T14:14:08.355Z,68.11
2022-12-03T14:16:34.751Z,68.29
2022-12-03T14:19:01.213Z,67.94
2022-12-03T14:21:27.663Z,68.53
2022-12-03T14:23:54.087Z,67.55
2022-12-03T14:26:20.506Z,68.14
2022-12-03T14:28:47.013Z,68.20
2022-12-03T14:31:13.417Z,68.49
2022-12-03T14:33:39.799Z,68.28
2022-12-03T14:36:06.360Z,68.53
2022-12-03T14:38:32.799Z,66.36
2022-12-03T14:40:59.184Z,67.35
2022-12-03T14:43:25.561Z,68.20
2022-12-03T14:45:52.047Z,68.27
2022-12-03T14:48:20.621Z,67.51
2022-12-03T14:50:47.030Z,68.19
2022-12-03T14:53:13.401Z,67.96
2022-12-03T14:55:39.824Z,66.99
2022-12-03T14:58:06.207Z,67.54
2022-12-03T15:00:32.629Z,67.89
2022-12-03T15:02:59.061Z,67.22
2022-12-03T15:05:28.892Z,67.22
2022-12-03T15:07:55.874Z,67.04
2022-12-03T15:10:22.395Z,67.62
2022-12-03T15:12:48.752Z,67.65
2022-12-03T15:15:15.212Z,69.13
2022-12-03T15:17:41.759Z,67.11
2022-12-03T15:20:08.749Z,67.26
2022-12-03T15:22:35.100Z,67.09
2022-12-03T15:25:03.297Z,71.55
2022-12-03T15:27:29.780Z,68.45
2022-12-03T15:29:56.475Z,68.03
2022-12-03T15:32:23.082Z,67.21
2022-12-03T15:34:51.285Z,67.01
2022-12-03T15:37:17.751Z,65.63
2022-12-03T15:39:48.378Z,65.84
2022-12-03T15:42:15.359Z,66.10
2022-12-03T15:44:41.716Z,66.07
2022-12-03T15:47:08.144Z,66.45
2022-12-03T15:49:34.588Z,66.22
2022-12-03T15:52:01.079Z,66.11
2022-12-03T15:54:27.516Z,65.54
2022-12-03T15:56:57.245Z,66.59
2022-12-03T15:59:24.159Z,65.92
2022-12-03T16:01:50.612Z,66.58
2022-12-03T16:04:17.196Z,66.34
2022-12-03T16:06:43.572Z,65.70
2022-12-03T16:09:09.978Z,66.74
2022-12-03T16:11:36.411Z,66.98
2022-12-03T16:14:02.847Z,66.58
2022-12-03T16:16:29.365Z,67.30
2022-12-03T16:18:55.819Z,66.85
2022-12-03T16:21:26.627Z,66.77
2022-12-03T16:23:53.697Z,66.90
2022-12-03T16:26:20.069Z,67.06
2022-12-03T16:28:47.836Z,67.01
2022-12-03T16:31:14.302Z,67.33
2022-12-03T16:33:40.694Z,67.01
2022-12-03T16:36:07.297Z,65.72
2022-12-03T16:38:33.726Z,66.91
2022-12-03T16:41:01.210Z,67.60
2022-12-03T16:43:27.999Z,66.90
2022-12-03T16:46:20.143Z,67.67
2022-12-03T16:48:48.172Z,68.18
2022-12-03T16:51:15.408Z,67.40
2022-12-03T16:53:41.977Z,68.02
2022-12-03T16:56:08.743Z,67.98
2022-12-03T16:58:35.148Z,67.85
2022-12-03T17:01:01.787Z,69.72
2022-12-03T17:03:33.677Z,68.57
2022-12-03T17:06:01.152Z,67.69
2022-12-03T17:08:27.811Z,67.80
2022-12-03T17:10:54.344Z,67.35
2022-12-03T17:13:23.038Z,68.10
2022-12-03T17:15:50.514Z,68.29
2022-12-03T17:18:17.116Z,66.69
2022-12-03T17:20:43.547Z,66.48
2022-12-03T17:23:10.085Z,67.13
2022-12-03T17:25:36.505Z,67.12
2022-12-03T17:28:02.952Z,67.23
2022-12-03T17:30:29.316Z,67.54
2022-12-03T17:32:55.719Z,66.99
2022-12-03T17:35:22.133Z,66.62
2022-12-03T17:37:48.574Z,66.76
2022-12-03T17:40:15.582Z,67.00
2022-12-03T17:42:41.982Z,66.34
2022-12-03T17:45:08.737Z,66.44
2022-12-03T17:47:35.126Z,65.88
2022-12-03T17:50:01.803Z,66.46
2022-12-03T17:52:28.190Z,67.13
2022-12-03T17:55:13.193Z,66.78
2022-12-03T17:57:40.979Z,66.56
2022-12-03T18:00:08.091Z,66.77
2022-12-03T18:02:41.663Z,67.63
2022-12-03T18:05:08.728Z,67.70
2022-12-03T18:07:35.288Z,68.34
2022-12-03T18:10:01.786Z,67.93
2022-12-03T18:12:28.296Z,68.22
2022-12-03T18:14:54.731Z,67.93
2022-12-03T18:17:21.172Z,68.43
2022-12-03T18:19:47.564Z,68.18
2022-12-03T18:22:14.270Z,68.15
2022-12-03T18:24:40.822Z,67.55
2022-12-03T18:27:07.441Z,67.50
2022-12-03T18:29:33.848Z,67.86
2022-12-03T18:32:00.293Z,67.62
2022-12-03T18:34:26.958Z,67.40
2022-12-03T18:36:53.490Z,67.62
2022-12-03T18:39:32.931Z,68.17
2022-12-03T18:41:59.316Z,67.35
2022-12-03T18:44:25.910Z,68.46
2022-12-03T18:46:53.843Z,68.15
2022-12-03T18:49:20.476Z,68.58
2022-12-03T18:51:48.303Z,68.05
2022-12-03T18:54:15.043Z,68.08
2022-12-03T18:56:41.631Z,68.39
2022-12-03T18:59:08.758Z,67.90
2022-12-03T19:01:35.435Z,68.58
2022-12-03T19:04:02.347Z,68.25
2022-12-03T19:06:30.361Z,67.94
2022-12-03T19:08:56.851Z,68.01
2022-12-03T19:11:23.686Z,68.62
2022-12-03T19:13:50.268Z,68.54
2022-12-03T19:16:17.167Z,68.56
2022-12-03T19:18:43.683Z,68.49
2022-12-03T19:21:12.799Z,68.27
2022-12-03T19:23:39.979Z,67.41
2022-12-03T19:26:08.544Z,68.29
2022-12-03T19:28:36.072Z,68.85
2022-12-03T19:31:08.112Z,68.29
2022-12-03T19:33:35.048Z,68.32
2022-12-03T19:36:02.645Z,68.77
2022-12-03T19:38:30.093Z,67.62
2022-12-03T19:41:07.195Z,68.39
2022-12-03T19:43:36.334Z,68.13
2022-12-03T19:46:05.198Z,68.83
2022-12-03T19:48:32.431Z,68.34
2022-12-03T19:51:26.231Z,69.21
2022-12-03T19:53:48.540Z,69.54
2022-12-03T19:56:18.459Z,69.03
2022-12-03T19:58:46.067Z,69.10
2022-12-03T20:01:16.008Z,68.99
2022-12-03T20:03:45.330Z,68.79
2022-12-03T20:06:12.913Z,68.49
2022-12-03T20:08:39.304Z,69.11
2022-12-03T20:11:23.764Z,69.40
2022-12-03T20:13:55.622Z,69.40
2022-12-03T20:16:23.547Z,69.05
2022-12-03T20:18:55.570Z,69.40
2022-12-03T20:21:21.973Z,68.41
2022-12-03T20:23:48.390Z,67.97
2022-12-03T20:26:17.601Z,68.32
2022-12-03T20:28:44.662Z,68.58
2022-12-03T20:31:13.671Z,67.35
2022-12-03T20:33:43.169Z,67.77
2022-12-03T20:36:11.458Z,68.60
2022-12-03T20:38:38.190Z,68.20
2022-12-03T20:41:10.163Z,68.34
2022-12-03T20:43:36.674Z,68.41
2022-12-03T20:46:15.419Z,67.98
2022-12-03T20:48:42.924Z,67.21
2022-12-03T20:51:11.814Z,67.66
2022-12-03T20:53:38.966Z,68.19
2022-12-03T20:56:05.995Z,68.56
2022-12-03T20:58:33.219Z,68.07
2022-12-03T21:01:16.198Z,68.52
2022-12-03T21:03:43.675Z,67.94
2022-12-03T21:06:10.261Z,67.83
2022-12-03T21:08:41.410Z,67.79
2022-12-03T21:11:20.895Z,68.21
2022-12-03T21:13:47.816Z,68.66
2022-12-03T21:16:39.481Z,68.24
2022-12-03T21:19:08.056Z,68.27
2022-12-03T21:21:35.356Z,67.88
2022-12-03T21:24:01.792Z,68.15
2022-12-03T21:26:28.304Z,66.93
2022-12-03T21:28:54.731Z,67.66
2022-12-03T21:31:25.162Z,67.20
2022-12-03T21:33:55.778Z,67.42
2022-12-03T21:36:23.420Z,66.98
2022-12-03T21:38:49.866Z,67.16
2022-12-03T21:41:17.302Z,68.49
2022-12-03T21:43:44.320Z,68.24
2022-12-03T21:47:09.876Z,67.79
2022-12-03T21:49:01.076Z,67.62
2022-12-03T21:51:27.503Z,67.51
2022-12-03T21:53:53.927Z,67.75
2022-12-03T21:56:20.539Z,67.96
2022-12-03T21:58:46.972Z,67.47
2022-12-03T22:01:21.982Z,67.86
2022-12-03T22:03:48.892Z,67.81
2022-12-03T22:06:15.862Z,67.95
2022-12-03T22:08:43.155Z,68.11
2022-12-03T22:11:18.707Z,68.29
2022-12-03T22:13:45.489Z,68.16
2022-12-03T22:16:15.226Z,67.93
2022-12-03T22:18:42.334Z,68.32
2022-12-03T22:21:12.710Z,68.03
2022-12-03T22:23:39.964Z,68.33
2022-12-03T22:26:09.084Z,68.27
2022-12-03T22:28:35.512Z,68.50
2022-12-03T22:31:09.283Z,68.41
2022-12-03T22:33:36.450Z,67.68
2022-12-03T22:36:18.081Z,67.97
2022-12-03T22:38:46.971Z,68.42
2022-12-03T22:41:14.149Z,68.37
2022-12-03T22:43:40.658Z,68.36
2022-12-03T22:46:12.147Z,68.23
2022-12-03T22:48:40.126Z,68.24
2022-12-03T22:51:14.168Z,68.35
2022-12-03T22:53:40.647Z,68.17
2022-12-03T22:56:07.124Z,69.18
2022-12-03T22:58:33.772Z,69.04
2022-12-03T23:01:03.086Z,68.91
2022-12-03T23:03:30.208Z,69.17
2022-12-03T23:05:56.662Z,69.79
2022-12-03T23:08:23.205Z,68.79
2022-12-03T23:10:52.197Z,69.08
2022-12-03T23:13:20.193Z,69.37
2022-12-03T23:15:49.039Z,69.75
2022-12-03T23:18:15.473Z,68.97
2022-12-03T23:20:45.026Z,69.42
2022-12-03T23:23:11.557Z,69.85
2022-12-03T23:25:38.285Z,69.31
2022-12-03T23:28:05.501Z,69.40
2022-12-03T23:30:36.068Z,68.45
2022-12-03T23:33:03.860Z,69.13
2022-12-03T23:35:30.313Z,68.82
2022-12-03T23:37:56.763Z,69.36
2022-12-03T23:40:23.129Z,69.42
2022-12-03T23:42:49.760Z,69.58
2022-12-03T23:45:16.140Z,69.04
2022-12-03T23:47:42.542Z,69.14
2022-12-03T23:50:10.924Z,67.73
2022-12-03T23:52:37.336Z,69.22
2022-12-03T23:55:03.975Z,69.10
2022-12-03T23:57:30.385Z,69.61
2022-12-03T23:59:57.060Z,69.29
